createdAt,value
2019-04-06T00:01:40.712Z,7.70
2019-04-06T00:04:33.779Z,4.92
2019-04-06T00:07:20.981Z,9.90
2019-04-06T00:10:14.762Z,7.87
2019-04-06T00:13:08.106Z,10.38
2019-04-06T00:16:02.462Z,6.20
2019-04-06T00:18:55.465Z,9.53
2019-04-06T00:21:56.201Z,9.83
2019-04-06T00:24:49.256Z,9.73
2019-04-06T00:27:42.311Z,5.80
2019-04-06T00:30:43.304Z,5.03
2019-04-06T00:33:36.361Z,6.53
2019-04-06T00:36:25.831Z,3.47
2019-04-06T00:39:21.193Z,6.25
2019-04-06T00:42:14.253Z,5.17
2019-04-06T00:45:07.319Z,9.48
2019-04-06T00:48:00.398Z,3.55
2019-04-06T00:50:53.415Z,3.85
2019-04-06T00:53:46.475Z,3.10
2019-04-06T00:56:39.530Z,5.00
2019-04-06T00:59:33.608Z,5.78
2019-04-06T01:02:26.669Z,6.62
2019-04-06T01:05:27.659Z,10.72
2019-04-06T01:08:20.971Z,8.50
2019-04-06T01:11:14.288Z,10.55
2019-04-06T01:14:07.341Z,6.47
2019-04-06T01:17:00.649Z,8.75
2019-04-06T01:19:53.966Z,8.90
2019-04-06T01:22:47.018Z,9.10
2019-04-06T01:25:41.104Z,6.20
2019-04-06T01:28:35.180Z,8.13
2019-04-06T01:31:36.938Z,5.70
2019-04-06T01:34:30.250Z,8.13
2019-04-06T01:37:23.313Z,4.97
2019-04-06T01:40:16.363Z,5.58
2019-04-06T01:43:09.672Z,7.22
2019-04-06T01:46:02.984Z,7.22
2019-04-06T01:48:56.046Z,4.62
2019-04-06T01:51:49.099Z,6.00
2019-04-06T01:54:42.409Z,7.05
2019-04-06T01:57:35.722Z,6.40
2019-04-06T02:00:30.571Z,8.23
2019-04-06T02:03:23.631Z,7.78
2019-04-06T02:06:15.399Z,4.95
2019-04-06T02:09:08.715Z,7.50
2019-04-06T02:12:01.770Z,3.37
2019-04-06T02:14:54.567Z,4.42
2019-04-06T02:17:48.672Z,3.50
2019-04-06T02:20:41.961Z,4.67
2019-04-06T02:23:35.273Z,4.70
2019-04-06T02:26:36.518Z,3.55
2019-04-06T02:29:30.087Z,8.50
2019-04-06T02:32:49.523Z,8.88
2019-04-06T02:35:59.721Z,6.03
2019-04-06T02:39:09.958Z,4.05
2019-04-06T02:42:06.569Z,4.53
2019-04-06T02:45:00.654Z,8.15
2019-04-06T02:47:56.293Z,7.35
2019-04-06T02:50:49.337Z,8.28
2019-04-06T02:53:42.639Z,8.38
2019-04-06T02:56:46.130Z,7.08
2019-04-06T02:59:36.684Z,8.28
2019-04-06T03:02:30.010Z,7.40
2019-04-06T03:05:36.109Z,5.83
2019-04-06T03:08:29.185Z,4.40
2019-04-06T03:11:22.220Z,3.83
2019-04-06T03:14:15.017Z,3.80
2019-04-06T03:17:08.329Z,4.15
2019-04-06T03:20:03.558Z,5.83
2019-04-06T03:22:56.490Z,3.50
2019-04-06T03:25:45.708Z,3.12
2019-04-06T03:28:39.027Z,5.60
2019-04-06T03:31:28.697Z,3.33
2019-04-06T03:34:22.551Z,2.90
2019-04-06T03:37:14.345Z,3.00
2019-04-06T03:40:07.400Z,2.77
2019-04-06T03:43:01.481Z,2.80
2019-04-06T03:45:54.542Z,3.05
2019-04-06T03:48:47.595Z,7.85
2019-04-06T03:51:40.776Z,8.93
2019-04-06T03:54:27.982Z,4.15
2019-04-06T03:57:21.391Z,3.72
2019-04-06T04:00:10.857Z,8.48
2019-04-06T04:03:03.657Z,8.75
2019-04-06T04:05:57.158Z,6.45
2019-04-06T04:08:50.040Z,7.22
2019-04-06T04:11:43.083Z,3.15
2019-04-06T04:14:36.222Z,3.00
2019-04-06T04:17:29.365Z,3.85
2019-04-06T04:20:17.008Z,6.85
2019-04-06T04:23:13.053Z,4.22
2019-04-06T04:26:02.354Z,6.70
2019-04-06T04:28:51.594Z,6.53
2019-04-06T04:31:44.761Z,6.97
2019-04-06T04:34:38.598Z,3.95
2019-04-06T04:37:31.633Z,8.63
2019-04-06T04:40:24.683Z,10.53
2019-04-06T04:43:17.741Z,11.12
2019-04-06T04:46:10.850Z,10.82
2019-04-06T04:49:03.945Z,9.68
2019-04-06T04:51:56.906Z,11.05
2019-04-06T04:54:49.961Z,6.15
2019-04-06T04:57:45.369Z,7.62
2019-04-06T05:00:37.098Z,4.20
2019-04-06T05:03:32.714Z,4.53
2019-04-06T05:06:26.794Z,4.20
2019-04-06T05:09:19.857Z,4.08
2019-04-06T05:12:12.909Z,4.17
2019-04-06T05:15:29.256Z,4.83
2019-04-06T05:18:22.314Z,9.98
2019-04-06T05:21:15.371Z,4.37
2019-04-06T05:24:09.965Z,4.30
2019-04-06T05:27:04.301Z,4.42
2019-04-06T05:29:57.526Z,5.05
2019-04-06T05:32:50.413Z,8.23
2019-04-06T05:35:43.726Z,6.40
2019-04-06T05:38:38.650Z,5.10
2019-04-06T05:41:31.885Z,5.42
2019-04-06T05:44:25.193Z,7.33
2019-04-06T05:47:18.259Z,8.35
2019-04-06T05:50:14.217Z,6.15
2019-04-06T05:53:11.532Z,5.90
2019-04-06T05:56:05.357Z,9.25
2019-04-06T05:58:58.416Z,8.60
2019-04-06T06:01:51.722Z,5.80
2019-04-06T06:04:45.208Z,6.00
2019-04-06T06:07:38.099Z,5.35
2019-04-06T06:10:31.664Z,5.78
2019-04-06T06:13:24.726Z,11.10
2019-04-06T06:16:17.776Z,6.62
2019-04-06T06:19:14.044Z,8.83
2019-04-06T06:22:06.010Z,7.20
2019-04-06T06:24:59.388Z,5.92
2019-04-06T06:27:52.296Z,6.65
2019-04-06T06:30:45.354Z,7.78
2019-04-06T06:33:49.681Z,12.15
2019-04-06T06:36:42.985Z,7.87
2019-04-06T06:39:36.024Z,6.30
2019-04-06T06:42:28.588Z,7.12
2019-04-06T06:45:21.644Z,7.97
2019-04-06T06:48:14.701Z,11.08
2019-04-06T06:51:09.034Z,11.03
2019-04-06T06:54:02.281Z,7.45
2019-04-06T06:56:55.495Z,8.95
2019-04-06T06:59:49.224Z,10.35
2019-04-06T07:02:42.283Z,8.15
2019-04-06T07:05:35.998Z,9.23
2019-04-06T07:08:28.905Z,11.85
2019-04-06T07:11:21.960Z,8.45
2019-04-06T07:14:15.038Z,10.43
2019-04-06T07:17:04.232Z,7.80
2019-04-06T07:19:58.137Z,9.78
2019-04-06T07:22:51.115Z,12.80
2019-04-06T07:25:44.416Z,9.63
2019-04-06T07:28:39.516Z,6.87
2019-04-06T07:31:33.359Z,8.80
2019-04-06T07:34:26.408Z,8.20
2019-04-06T07:37:19.211Z,8.75
2019-04-06T07:40:08.394Z,6.83
2019-04-06T07:43:01.484Z,7.25
2019-04-06T07:45:59.913Z,8.65
2019-04-06T07:48:52.712Z,7.17
2019-04-06T07:51:46.538Z,9.18
2019-04-06T07:54:39.850Z,7.87
2019-04-06T07:57:33.254Z,7.50
2019-04-06T08:00:27.253Z,7.28
2019-04-06T08:03:16.203Z,11.45
2019-04-06T08:06:09.513Z,6.75
2019-04-06T08:09:02.827Z,8.08
2019-04-06T08:11:55.886Z,11.45
2019-04-06T08:14:49.029Z,7.15
2019-04-06T08:17:41.997Z,8.33
2019-04-06T08:20:35.307Z,6.45
2019-04-06T08:23:28.874Z,9.03
2019-04-06T08:26:21.928Z,9.50
2019-04-06T08:29:14.985Z,7.87
2019-04-06T08:32:08.044Z,7.15
2019-04-06T08:35:01.115Z,8.93
2019-04-06T08:37:48.601Z,7.83
2019-04-06T08:40:41.872Z,10.30
2019-04-06T08:43:35.475Z,6.33
2019-04-06T08:46:28.200Z,9.25
2019-04-06T08:49:26.891Z,8.60
2019-04-06T08:52:27.575Z,5.92
2019-04-06T08:55:27.934Z,7.87
2019-04-06T08:58:20.908Z,6.25
2019-04-06T09:01:14.230Z,6.35
2019-04-06T09:04:07.278Z,6.08
2019-04-06T09:07:00.387Z,8.78
2019-04-06T09:10:03.116Z,7.20
2019-04-06T09:12:56.172Z,9.85
2019-04-06T09:15:49.475Z,6.37
2019-04-06T09:18:42.681Z,6.67
2019-04-06T09:21:35.851Z,5.55
2019-04-06T09:24:29.180Z,5.33
2019-04-06T09:27:22.217Z,6.90
2019-04-06T09:30:11.464Z,6.55
2019-04-06T09:33:05.006Z,7.53
2019-04-06T09:35:58.313Z,7.75
2019-04-06T09:38:58.538Z,8.58
2019-04-06T09:41:51.597Z,7.15
2019-04-06T09:45:08.199Z,6.28
2019-04-06T09:48:03.195Z,7.62
2019-04-06T09:51:07.256Z,7.25
2019-04-06T09:54:17.590Z,6.97
2019-04-06T09:57:35.839Z,7.20
2019-04-06T10:00:33.901Z,7.35
2019-04-06T10:03:47.178Z,6.95
2019-04-06T10:06:49.966Z,9.28
2019-04-06T10:10:11.754Z,9.43
2019-04-06T10:13:20.112Z,7.90
2019-04-06T10:16:33.137Z,8.18
2019-04-06T10:19:54.559Z,5.45
2019-04-06T10:23:00.595Z,9.73
2019-04-06T10:26:13.738Z,5.70
2019-04-06T10:29:16.524Z,5.78
2019-04-06T10:32:20.330Z,7.47
2019-04-06T10:35:39.501Z,6.70
2019-04-06T10:38:49.203Z,7.78
2019-04-06T10:41:57.864Z,7.90
2019-04-06T10:45:08.074Z,7.25
2019-04-06T10:48:25.448Z,8.78
2019-04-06T10:54:36.146Z,5.08
2019-04-06T10:57:40.459Z,5.25
2019-04-06T11:00:47.848Z,5.08
2019-04-06T11:04:11.001Z,6.30
2019-04-06T11:07:14.469Z,4.60
2019-04-06T11:10:30.762Z,5.78
2019-04-06T11:13:41.993Z,5.92
2019-04-06T11:16:55.019Z,6.28
2019-04-06T11:19:55.018Z,4.40
2019-04-06T11:23:10.568Z,8.18
2019-04-06T11:26:21.290Z,6.00
2019-04-06T11:29:24.606Z,5.28
2019-04-06T11:32:23.784Z,6.78
2019-04-06T11:39:06.476Z,6.00
2019-04-06T11:42:19.495Z,5.78
2019-04-06T11:45:35.339Z,4.67
2019-04-06T11:48:39.938Z,7.62
2019-04-06T11:52:03.027Z,5.10
2019-04-06T11:55:10.083Z,5.45
2019-04-06T11:58:21.566Z,5.87
2019-04-06T12:01:36.924Z,4.67
2019-04-06T12:04:49.400Z,7.42
2019-04-06T12:07:52.953Z,5.83
2019-04-06T12:11:00.806Z,5.90
2019-04-06T12:14:05.436Z,5.25
2019-04-06T12:17:22.538Z,3.95
2019-04-06T12:20:26.351Z,4.85
2019-04-06T12:23:32.765Z,5.70
2019-04-06T12:26:33.749Z,6.42
2019-04-06T12:29:49.575Z,4.60
2019-04-06T12:36:13.908Z,6.28
2019-04-06T12:39:34.044Z,5.50
2019-04-06T12:42:39.378Z,5.30
2019-04-06T12:45:46.490Z,4.62
2019-04-06T12:48:46.196Z,6.30
2019-04-06T12:51:57.223Z,7.03
2019-04-06T12:55:10.974Z,6.75
2019-04-06T12:58:23.214Z,4.40
2019-04-06T13:01:31.445Z,4.42
2019-04-06T13:04:54.833Z,4.05
2019-04-06T13:08:16.891Z,5.00
2019-04-06T13:11:21.977Z,3.40
2019-04-06T13:14:27.321Z,2.47
2019-04-06T13:17:32.349Z,3.47
2019-04-06T13:20:41.835Z,3.42
2019-04-06T13:23:46.346Z,4.30
2019-04-06T13:26:52.034Z,3.90
2019-04-06T13:29:55.850Z,4.10
2019-04-06T13:33:14.486Z,3.70
2019-04-06T13:36:15.501Z,4.05
2019-04-06T13:39:25.676Z,3.17
2019-04-06T13:42:29.192Z,4.03
2019-04-06T13:45:37.404Z,3.87
2019-04-06T13:48:54.361Z,4.83
2019-04-06T13:52:01.137Z,3.92
2019-04-06T13:55:21.065Z,4.00
2019-04-06T13:58:27.319Z,2.35
2019-04-06T14:01:40.713Z,2.87
2019-04-06T14:05:04.051Z,3.87
2019-04-06T14:08:04.184Z,4.22
2019-04-06T14:11:09.287Z,4.37
2019-04-06T14:14:16.426Z,3.95
2019-04-06T14:17:31.921Z,4.28
2019-04-06T14:20:45.034Z,5.10
2019-04-06T14:23:48.403Z,4.37
2019-04-06T14:26:57.556Z,5.08
2019-04-06T14:29:57.941Z,5.25
2019-04-06T14:33:08.464Z,3.47
2019-04-06T14:36:16.496Z,2.15
2019-04-06T14:39:20.722Z,3.40
2019-04-06T14:42:25.007Z,3.90
2019-04-06T14:45:32.235Z,4.47
2019-04-06T14:48:38.255Z,3.12
2019-04-06T14:51:49.224Z,5.10
2019-04-06T14:54:54.826Z,5.22
2019-04-06T14:58:14.648Z,5.10
2019-04-06T15:01:17.369Z,4.80
2019-04-06T15:04:25.706Z,4.97
2019-04-06T15:07:30.050Z,6.12
2019-04-06T15:10:38.703Z,5.30
2019-04-06T15:13:53.081Z,5.45
2019-04-06T15:16:57.393Z,5.90
2019-04-06T15:20:13.671Z,5.97
2019-04-06T15:23:18.773Z,4.50
2019-04-06T15:26:39.283Z,5.47
2019-04-06T15:29:43.396Z,6.47
2019-04-06T15:33:04.237Z,4.55
2019-04-06T15:36:02.919Z,6.08
2019-04-06T15:39:19.527Z,4.10
2019-04-06T15:42:20.780Z,5.65
2019-04-06T15:45:24.448Z,5.60
2019-04-06T15:48:41.332Z,4.97
2019-04-06T15:51:45.269Z,1.75
2019-04-06T15:54:55.463Z,1.72
2019-04-06T15:58:02.975Z,0.90
2019-04-06T16:01:05.129Z,0.95
2019-04-06T16:04:09.451Z,0.93
2019-04-06T16:07:14.074Z,1.10
2019-04-06T16:10:18.606Z,0.70
2019-04-06T16:13:39.166Z,0.90
2019-04-06T16:16:43.371Z,0.75
2019-04-06T16:19:47.688Z,0.70
2019-04-06T16:22:52.442Z,0.90
2019-04-06T16:25:58.360Z,0.90
2019-04-06T16:29:18.650Z,0.90
2019-04-06T16:32:31.437Z,0.85
2019-04-06T16:38:43.557Z,1.30
2019-04-06T16:41:48.906Z,0.95
2019-04-06T16:44:53.516Z,1.00
2019-04-06T16:48:06.396Z,1.25
2019-04-06T16:51:15.949Z,1.62
2019-04-06T16:54:20.263Z,0.93
2019-04-06T16:57:19.466Z,1.30
2019-04-06T17:00:38.870Z,1.12
2019-04-06T17:03:52.428Z,1.67
2019-04-06T17:07:05.449Z,4.87
2019-04-06T17:10:18.242Z,5.78
2019-04-06T17:13:33.207Z,6.20
2019-04-06T17:16:49.130Z,5.70
2019-04-06T17:20:02.193Z,3.12
2019-04-06T17:23:01.620Z,5.37
2019-04-06T17:26:14.907Z,4.53
2019-04-06T17:29:25.649Z,4.37
2019-04-06T17:32:34.755Z,3.20
2019-04-06T17:35:27.550Z,4.28
2019-04-06T17:38:33.973Z,5.97
2019-04-06T17:41:36.747Z,5.42
2019-04-06T17:44:41.180Z,5.20
2019-04-06T17:47:45.384Z,5.83
2019-04-06T17:50:49.864Z,5.15
2019-04-06T17:53:57.014Z,6.17
2019-04-06T17:57:01.525Z,5.95
2019-04-06T18:00:11.111Z,6.55
2019-04-06T18:03:21.323Z,4.00
2019-04-06T18:06:28.202Z,5.75
2019-04-06T18:09:33.033Z,7.03
2019-04-06T18:12:38.239Z,6.50
2019-04-06T18:15:31.430Z,6.70
2019-04-06T18:18:16.577Z,6.05
2019-04-06T18:21:09.868Z,7.55
2019-04-06T18:24:03.533Z,6.35
2019-04-06T18:26:55.469Z,6.67
2019-04-06T18:29:42.639Z,6.40
2019-04-06T18:32:57.818Z,4.25
2019-04-06T18:35:42.853Z,4.33
2019-04-06T18:38:43.378Z,3.30
2019-04-06T18:41:35.838Z,3.08
2019-04-06T18:44:32.032Z,3.52
2019-04-06T18:47:25.700Z,3.22
2019-04-06T18:50:17.832Z,2.80
2019-04-06T18:53:11.353Z,3.27
2019-04-06T18:56:04.211Z,2.90
2019-04-06T18:58:58.394Z,3.17
2019-04-06T19:01:51.085Z,6.70
2019-04-06T19:04:49.003Z,6.72
2019-04-06T19:07:43.085Z,4.62
2019-04-06T19:10:37.163Z,4.87
2019-04-06T19:13:26.486Z,6.72
2019-04-06T19:16:20.673Z,8.03
2019-04-06T19:19:14.028Z,6.10
2019-04-06T19:22:07.344Z,6.10
2019-04-06T19:25:00.393Z,6.25
2019-04-06T19:27:53.712Z,6.95
2019-04-06T19:30:54.440Z,5.65
2019-04-06T19:33:47.486Z,5.42
2019-04-06T19:36:40.660Z,7.60
2019-04-06T19:39:34.408Z,7.45
2019-04-06T19:42:23.225Z,8.70
2019-04-06T19:45:24.076Z,6.87
2019-04-06T19:48:17.678Z,8.10
2019-04-06T19:51:10.442Z,3.98
2019-04-06T19:54:05.254Z,3.95
2019-04-06T19:56:56.859Z,3.22
2019-04-06T19:59:49.361Z,3.17
2019-04-06T20:02:39.054Z,1.70
2019-04-06T20:05:31.879Z,2.08
2019-04-06T20:08:25.505Z,1.72
2019-04-06T20:11:14.669Z,1.30
2019-04-06T20:14:08.760Z,1.47
2019-04-06T20:17:02.028Z,1.57
2019-04-06T20:19:54.608Z,1.30
2019-04-06T20:22:47.666Z,1.57
2019-04-06T20:25:37.392Z,1.05
2019-04-06T20:28:30.194Z,1.00
2019-04-06T20:31:24.044Z,1.20
2019-04-06T20:34:13.234Z,0.95
2019-04-06T20:37:07.261Z,0.85
2019-04-06T20:40:00.476Z,1.20
2019-04-06T20:42:53.422Z,1.35
2019-04-06T20:45:47.239Z,0.98
2019-04-06T20:48:40.297Z,0.80
2019-04-06T20:51:33.355Z,1.20
2019-04-06T20:54:26.440Z,1.12
2019-04-06T20:57:20.202Z,1.35
2019-04-06T21:03:19.913Z,1.20
2019-04-06T21:06:21.292Z,1.00
2019-04-06T21:09:14.222Z,1.87
2019-04-06T21:12:15.209Z,1.25
2019-04-06T21:15:16.899Z,0.90
2019-04-06T21:18:02.605Z,1.10
2019-04-06T21:20:56.944Z,0.90
2019-04-06T21:23:50.251Z,1.00
2019-04-06T21:26:44.328Z,1.07
2019-04-06T21:29:40.047Z,1.40
2019-04-06T21:32:31.021Z,0.98
2019-04-06T21:35:23.758Z,1.35
2019-04-06T21:38:17.082Z,1.50
2019-04-06T21:41:06.230Z,1.50
2019-04-06T21:44:00.049Z,1.45
2019-04-06T21:47:00.588Z,1.05
2019-04-06T21:49:54.423Z,1.70
2019-04-06T21:52:49.560Z,1.00
2019-04-06T21:55:42.567Z,1.20
2019-04-06T21:58:35.692Z,1.12
2019-04-06T22:01:28.941Z,1.40
2019-04-06T22:04:26.010Z,2.10
2019-04-06T22:07:17.787Z,2.12
2019-04-06T22:10:11.811Z,1.52
2019-04-06T22:13:04.978Z,1.32
2019-04-06T22:15:58.184Z,1.30
2019-04-06T22:18:51.119Z,1.32
2019-04-06T22:21:45.216Z,1.85
2019-04-06T22:24:37.744Z,1.52
2019-04-06T22:27:31.190Z,1.45
2019-04-06T22:30:25.129Z,1.40
2019-04-06T22:33:18.405Z,1.65
2019-04-06T22:36:07.705Z,1.47
2019-04-06T22:38:56.556Z,1.90
2019-04-06T22:41:49.927Z,1.50
2019-04-06T22:44:42.784Z,1.70
2019-04-06T22:47:37.080Z,1.65
2019-04-06T22:50:26.023Z,1.82
2019-04-06T22:56:20.417Z,1.80
2019-04-06T22:59:13.134Z,1.50
2019-04-06T23:02:06.462Z,1.55
2019-04-06T23:05:02.917Z,1.57
2019-04-06T23:07:56.131Z,1.40
2019-04-06T23:10:49.194Z,1.50
2019-04-06T23:13:42.110Z,1.42
2019-04-06T23:16:34.194Z,1.55
2019-04-06T23:19:28.364Z,1.77
2019-04-06T23:22:22.439Z,1.50
2019-04-06T23:25:16.160Z,1.40
2019-04-06T23:28:08.561Z,2.22
2019-04-06T23:30:58.536Z,1.70
2019-04-06T23:33:47.183Z,1.50
2019-04-06T23:36:39.787Z,1.85
2019-04-06T23:39:34.343Z,1.20
2019-04-06T23:42:27.152Z,1.60
2019-04-06T23:45:23.448Z,1.35
2019-04-06T23:48:16.354Z,1.40
2019-04-06T23:51:05.262Z,1.60
2019-04-06T23:53:59.157Z,1.40
2019-04-06T23:56:51.951Z,1.15
2019-04-06T23:59:44.752Z,1.20
